Latest Weather Observations for Williamtown

IDN60901

Issued at 6:02 pm EST Saturday 5 September 2026 (issued every 10 minutes, with the page automatically refreshed every 10 minutes)

About weather observations | Map of Sydney area stations | Latest observations for Sydney area | Other Formats
Station Details ID: 061078 Name: WILLIAMTOWN RAAF Lat: -32.79 Lon: 151.84 Height: 7.5 m
Data from the previous 72 hours. | See also: Recent months at Williamtown
Date/Time
EST
Temp
°C
App
Temp
°C
Dew
Point
°C
Rel
Hum
%
Delta-T
°C
Wind Press
QNH
hPa
Press
MSL
hPa
Rain since
9am
mm
Dir  Spd
km/h
Gust
km/h
Spd
kts
Gust
kts
05/06:00pm 28.6 25.4 8.3 28 11.1 NW 15 35 8 19 1010.0 1009.9 0.0
05/05:30pm 29.0 25.0 8.1 27 11.4 NW 19 32 10 17 1008.3 1008.3 0.0
05/05:00pm 29.7 25.7 8.2 26 11.8 NW 19 35 10 19 1008.0 1008.0 0.0
05/04:47pm 30.2 25.2 8.0 25 12.2 NW 24 39 13 21 1007.8 1007.8 0.0
05/04:30pm 30.6 24.9 8.3 25 12.3 NW 28 50 15 27 1007.7 1007.7 0.0
05/04:28pm 30.6 24.7 7.7 24 12.5 NW 28 50 15 27 1007.5 1007.5 0.0
05/04:00pm 31.0 25.2 8.1 24 12.6 NW 28 41 15 22 1007.8 1007.8 0.0
05/03:56pm 31.0 25.2 8.1 24 12.6 NW 28 41 15 22 1007.7 1007.7 0.0
05/03:36pm 31.5 25.2 7.2 22 13.2 NW 30 50 16 27 1007.6 1007.6 0.0
05/03:35pm 31.5 25.7 7.9 23 13.0 NW 28 41 15 22 1007.7 1007.7 0.0
05/03:30pm 31.5 25.8 8.5 24 12.8 NW 28 41 15 22 1007.8 1007.8 0.0
05/03:22pm 31.7 25.5 8.0 23 13.1 NW 30 48 16 26 1007.9 1007.9 0.0
05/03:18pm 31.8 25.1 8.1 23 13.1 NW 33 48 18 26 1007.9 1007.9 0.0
05/03:00pm 32.2 24.7 7.8 22 13.5 NW 37 57 20 31 1008.1 1008.1 0.0
05/02:32pm 32.3 26.3 7.2 21 13.7 NW 28 46 15 25 1008.3 1008.3 0.0
05/02:30pm 32.2 26.9 8.4 23 13.2 NW 26 46 14 25 1008.5 1008.4 0.0
05/02:00pm 31.2 29.0 12.1 31 11.2 NNW 15 26 8 14 1009.1 1009.0 0.0
05/01:30pm 30.5 27.1 10.5 29 11.4 NNW 19 30 10 16 1009.6 1009.5 0.0
05/01:00pm 30.0 27.1 11.0 31 10.9 N 17 26 9 14 1010.3 1010.2 0.0
05/12:30pm 28.6 26.5 11.2 34 10.0 NNE 13 19 7 10 1011.4 1011.3 0.0
05/12:00pm 27.8 26.3 11.8 37 9.2 NNE 11 20 6 11 1012.3 1012.2 0.0
05/11:30am 27.1 25.4 12.3 39 8.6 NNE 13 19 7 10 1013.1 1013.0 0.0
05/11:00am 25.9 25.3 12.4 43 7.8 NNW 7 13 4 7 1014.2 1014.1 0.0
05/10:30am 24.2 23.2 12.2 47 6.8 N 9 13 5 7 1015.0 1014.9 0.0
05/10:00am 22.5 21.1 10.9 47 6.4 NNW 9 15 5 8 1015.7 1015.6 0.0
05/09:30am 21.5 20.1 10.9 51 5.8 NNW 9 13 5 7 1016.1 1016.0 0.0
05/09:00am 20.2 18.7 10.6 54 5.2 NNW 9 13 5 7 1016.7 1016.6 0.0
05/08:30am 19.5 17.8 11.3 59 4.5 NW 11 15 6 8 1016.9 1016.8 0.0
05/08:00am 17.9 16.5 10.8 63 3.8 NNW 9 15 5 8 1017.0 1016.9 0.0
05/07:30am 16.1 15.2 10.8 71 2.8 NNW 6 7 3 4 1017.3 1017.2 0.0
05/07:00am 13.6 13.6 11.0 84 1.4 NNE 2 6 1 3 1017.1 1017.0 0.0
05/06:30am 13.7 12.9 9.7 77 2.1 N 4 6 2 3 1016.7 1016.6 0.0
05/06:00am 13.0 11.3 9.8 81 1.6 NW 9 13 5 7 1017.1 1017.0 0.0
05/05:30am 12.3 11.7 9.1 81 1.6 WNW 2 6 1 3 1017.1 1017.0 0.0
05/05:00am 12.5 11.0 9.3 81 1.6 WNW 7 9 4 5 1016.9 1016.8 0.0
05/04:30am 12.4 11.5 9.4 82 1.5 WNW 4 7 2 4 1016.7 1016.6 0.0
05/04:00am 13.1 12.6 10.6 85 1.3 NNW 4 6 2 3 1016.8 1016.7 0.0
05/03:30am 12.0 10.8 9.4 84 1.3 NW 6 9 3 5 1016.9 1016.8 0.0
05/03:00am 11.0 9.5 9.1 88 0.9 NW 7 9 4 5 1017.3 1017.2 0.0
05/02:30am 12.4 11.6 11.1 92 0.7 NW 6 7 3 4 1017.7 1017.6 0.0
05/02:00am 12.1 11.3 9.7 85 1.2 NW 4 7 2 4 1018.2 1018.1 0.0
05/01:30am 11.2 10.8 9.8 91 0.7 NNW 2 4 1 2 1018.6 1018.5 0.0
05/01:00am 11.2 11.1 9.3 88 0.9 CALM 0 0 0 0 1018.7 1018.6 0.0
05/12:30am 11.5 11.0 9.4 87 1.1 NE 2 6 1 3 1018.8 1018.7 0.0
05/12:00am 12.5 12.6 10.0 85 1.3 CALM 0 0 0 0 1018.8 1018.7 0.0
 
Date/Time
EST
Temp
°C
App
Temp
°C
Dew
Point
°C
Rel
Hum
%
Delta-T
°C
Wind Press
QNH
hPa
Press
MSL
hPa
Rain since
9am
mm
Dir  Spd
km/h
Gust
km/h
Spd
kts
Gust
kts
04/11:30pm 12.9 12.9 11.0 88 1.0 NNW 2 4 1 2 1018.8 1018.7 0.0
04/11:00pm 12.9 11.9 10.4 85 1.3 NNW 6 9 3 5 1018.8 1018.7 0.0
04/10:30pm 12.3 12.4 10.0 86 1.2 CALM 0 0 0 0 1019.1 1019.0 0.0
04/10:00pm 12.9 12.9 9.9 82 1.5 CALM 0 4 0 2 1019.2 1019.1 0.0
04/09:30pm 15.1 14.6 10.9 76 2.2 N 4 4 2 2 1019.2 1019.1 0.0
04/09:00pm 15.6 15.5 10.8 73 2.5 NNE 2 6 1 3 1019.0 1018.9 0.0
04/08:30pm 15.8 14.9 10.8 72 2.7 NNE 6 9 3 5 1018.5 1018.4 0.0
04/08:00pm 16.3 15.5 11.0 71 2.8 NNE 6 11 3 6 1018.3 1018.2 0.0
04/07:30pm 16.2 15.6 11.6 74 2.5 NE 6 9 3 5 1018.1 1018.0 0.0
04/07:00pm 16.2 15.0 11.6 74 2.5 NE 9 15 5 8 1018.0 1017.9 0.0
04/06:30pm 16.7 15.8 11.2 70 3.0 NE 7 13 4 7 1017.9 1017.8 0.0
04/06:00pm 17.1 15.4 11.2 68 3.2 NE 11 17 6 9 1017.6 1017.5 0.0
04/05:30pm 17.9 15.7 10.8 63 3.8 ENE 13 19 7 10 1017.4 1017.3 0.0
04/05:00pm 18.8 16.9 10.6 59 4.4 ENE 11 19 6 10 1017.3 1017.2 0.0
04/04:30pm 19.9 16.7 10.0 53 5.3 NE 17 24 9 13 1017.2 1017.1 0.0
04/04:00pm 20.6 17.8 11.5 56 5.0 ENE 17 24 9 13 1017.3 1017.2 0.0
04/03:30pm 21.5 19.9 10.3 49 6.1 NNE 9 22 5 12 1017.6 1017.5 0.0
04/03:00pm 24.1 22.5 8.9 38 8.2 NW 7 19 4 10 1017.7 1017.6 0.0
04/02:30pm 23.7 22.1 8.9 39 7.9 N 7 15 4 8 1018.0 1017.9 0.0
04/02:00pm 23.0 20.5 8.3 39 7.8 NNW 11 19 6 10 1018.3 1018.2 0.0
04/01:30pm 23.2 20.7 8.1 38 8.0 NW 11 22 6 12 1018.7 1018.6 0.0
04/01:00pm 22.5 19.8 7.5 38 7.8 WNW 11 20 6 11 1019.1 1019.0 0.0
04/12:30pm 22.1 19.5 7.9 40 7.4 WNW 11 22 6 12 1019.7 1019.6 0.0
04/12:00pm 21.4 17.5 7.3 40 7.2 WNW 17 22 9 12 1020.5 1020.4 0.0
04/11:30am 20.8 18.7 6.7 40 7.1 NW 7 17 4 9 1020.7 1020.6 0.0
04/11:00am 20.5 18.7 7.2 42 6.8 WNW 6 15 3 8 1021.2 1021.1 0.0
04/10:30am 19.8 18.2 7.9 46 6.1 NW 6 19 3 10 1021.8 1021.8 0.0
04/10:00am 19.4 17.4 8.7 50 5.6 WSW 9 17 5 9 1022.1 1022.1 0.0
04/09:30am 18.8 17.5 9.8 56 4.8 WNW 7 17 4 9 1022.4 1022.4 0.0
04/09:00am 17.8 15.1 8.9 56 4.6 NW 13 17 7 9 1022.5 1022.5 0.0
04/08:30am 17.2 14.4 8.6 57 4.4 NW 13 17 7 9 1022.4 1022.4 0.0
04/08:00am 15.8 13.2 9.2 65 3.4 WNW 13 17 7 9 1022.1 1022.1 0.0
04/07:30am 14.2 12.0 9.4 73 2.5 WNW 11 15 6 8 1021.9 1021.9 0.0
04/07:00am 12.3 10.4 9.1 81 1.6 WNW 9 13 5 7 1021.6 1021.6 0.0
04/06:30am 9.6 8.4 7.9 89 0.8 W 4 7 2 4 1021.3 1021.2 0.0
04/06:00am 9.2 7.5 7.6 90 0.8 W 6 7 3 4 1021.2 1021.1 0.0
04/05:30am 9.1 8.1 7.2 88 0.9 W 2 6 1 3 1020.9 1020.8 0.0
04/05:00am 9.6 8.0 6.5 81 1.4 W 4 6 2 3 1020.8 1020.7 0.0
04/04:30am 9.9 8.4 6.8 81 1.5 W 4 4 2 2 1020.5 1020.4 0.0
04/04:00am 12.1 10.8 7.8 75 2.1 W 4 6 2 3 1020.3 1020.2 0.0
04/03:30am 12.0 10.9 8.3 78 1.8 W 4 6 2 3 1020.0 1019.9 0.0
04/03:00am 11.9 10.1 8.0 77 1.9 W 7 9 4 5 1019.8 1019.7 0.0
04/02:30am 11.2 8.9 7.5 78 1.8 W 9 13 5 7 1019.6 1019.5 0.0
04/02:00am 12.3 10.7 8.8 79 1.7 W 7 9 4 5 1019.7 1019.6 0.0
04/01:30am 13.9 12.4 8.3 69 2.8 NW 6 7 3 4 1019.8 1019.7 0.0
04/01:00am 15.2 13.7 9.1 67 3.1 NW 7 13 4 7 1019.6 1019.5 0.0
04/12:30am 16.0 14.7 9.2 64 3.5 NNW 6 7 3 4 1019.5 1019.4 0.0
04/12:00am 16.5 13.1 9.2 62 3.8 W 17 20 9 11 1019.1 1019.0 0.0
 
Date/Time
EST
Temp
°C
App
Temp
°C
Dew
Point
°C
Rel
Hum
%
Delta-T
°C
Wind Press
QNH
hPa
Press
MSL
hPa
Rain since
9am
mm
Dir  Spd
km/h
Gust
km/h
Spd
kts
Gust
kts
03/11:30pm 17.7 14.0 9.3 58 4.4 W 19 24 10 13 1018.8 1018.7 0.0
03/11:00pm 18.1 14.1 9.2 56 4.6 WNW 20 24 11 13 1018.4 1018.3 0.0
03/10:30pm 18.9 14.2 9.1 53 5.1 WNW 24 32 13 17 1018.0 1017.9 0.0
03/10:00pm 19.6 15.7 9.5 52 5.3 WNW 20 33 11 18 1017.8 1017.7 0.0
03/09:30pm 19.6 15.8 9.2 51 5.5 WNW 19 24 10 13 1017.5 1017.4 0.0
03/09:00pm 19.9 15.9 8.9 49 5.8 WNW 20 30 11 16 1016.9 1016.8 0.0
03/08:30pm 20.2 15.4 8.8 48 6.0 WNW 24 32 13 17 1016.4 1016.3 0.0
03/08:00pm 20.6 15.7 8.6 46 6.3 WNW 24 32 13 17 1016.0 1015.9 0.0
03/07:30pm 20.8 16.6 8.4 45 6.5 WNW 20 26 11 14 1015.7 1015.6 0.0
03/07:00pm 21.0 17.1 8.6 45 6.5 WNW 19 22 10 12 1015.2 1015.1 0.0
03/06:30pm 21.2 18.1 8.8 45 6.6 NW 15 19 8 10 1014.7 1014.6 0.0
03/06:00pm 22.7 19.0 8.0 39 7.7 WNW 17 22 9 12 1013.9 1013.8 0.0
03/05:30pm 24.2 19.1 7.8 35 8.7 WNW 24 33 13 18 1013.1 1013.0 0.0
03/05:00pm 25.3 18.6 8.3 34 9.1 WNW 33 44 18 24 1012.5 1012.4 0.0
03/04:30pm 26.5 20.5 8.5 32 9.7 WNW 30 44 16 24 1012.3 1012.2 0.0
03/04:07pm 26.9 20.3 7.9 30 10.2 WNW 32 46 17 25 1012.0 1011.9 0.0
03/04:00pm 27.3 21.2 8.2 30 10.3 WNW 30 43 16 23 1011.9 1011.8 0.0
03/03:53pm 27.6 21.2 9.4 32 10.1 NW 33 52 18 28 1011.7 1011.6 0.0
03/03:30pm 27.9 20.8 8.2 29 10.7 NW 35 46 19 25 1011.4 1011.3 0.0
03/03:08pm 28.5 21.9 7.7 27 11.2 WNW 32 46 17 25 1011.3 1011.2 0.0
03/03:00pm 28.2 21.1 8.0 28 11.0 WNW 35 50 19 27 1011.1 1011.0 0.0
03/02:57pm 28.5 21.1 8.2 28 11.1 WNW 37 56 20 30 1011.1 1011.0 0.0
03/02:30pm 28.8 21.4 8.5 28 11.1 WNW 37 46 20 25 1010.5 1010.4 0.0
03/02:21pm 28.6 20.7 9.3 30 10.7 NW 41 54 22 29 1010.5 1010.4 0.0
03/02:06pm 29.0 21.8 9.2 29 11.0 NW 37 56 20 30 1010.4 1010.3 0.0
03/02:00pm 28.3 20.2 8.6 29 10.8 WNW 41 50 22 27 1010.4 1010.3 0.0
03/01:30pm 28.9 20.0 9.1 29 11.0 NW 46 59 25 32 1010.0 1009.9 0.0
03/01:11pm 28.7 20.3 8.9 29 10.9 WNW 43 59 23 32 1010.1 1010.0 0.0
03/01:00pm 28.6 20.5 8.8 29 10.9 NW 41 59 22 32 1010.1 1010.0 0.0
03/12:30pm 28.8 20.5 9.5 30 10.8 WNW 43 61 23 33 1010.2 1010.1 0.0
03/12:23pm 28.6 21.1 9.3 30 10.7 WNW 39 57 21 31 1010.2 1010.1 0.0
03/12:13pm 28.7 20.4 9.9 31 10.5 WNW 44 59 24 32 1010.2 1010.1 0.0
03/12:00pm 28.7 20.4 9.9 31 10.6 WNW 44 63 24 34 1010.2 1010.1 0.0
03/11:30am 28.3 19.4 9.1 30 10.6 WNW 46 67 25 36 1010.3 1010.2 0.0
03/11:07am 28.3 20.1 9.6 31 10.4 W 43 69 23 37 1010.4 1010.3 0.0
03/11:06am 28.5 20.2 9.2 30 10.7 WNW 43 56 23 30 1010.4 1010.3 0.0
03/11:00am 29.0 21.7 10.2 31 10.6 WNW 39 56 21 30 1010.3 1010.2 0.0
03/10:30am 28.2 20.7 9.5 31 10.4 WNW 39 65 21 35 1010.3 1010.2 0.0
03/10:18am 28.4 21.3 9.6 31 10.5 WNW 37 57 20 31 1010.2 1010.1 0.0
03/10:07am 28.4 20.9 9.6 31 10.5 WNW 39 52 21 28 1010.2 1010.1 0.0
03/10:00am 28.2 21.5 9.5 31 10.4 WNW 35 52 19 28 1010.3 1010.2 0.0
03/09:56am 28.3 21.8 9.1 30 10.6 WNW 33 52 18 28 1010.3 1010.2 0.0
03/09:47am 28.2 22.0 9.5 31 10.4 WNW 32 44 17 24 1010.4 1010.3 0.0
03/09:36am 28.0 22.2 9.3 31 10.3 NW 30 48 16 26 1010.3 1010.2 0.0
03/09:30am 27.7 24.0 10.0 33 9.9 NW 20 41 11 22 1010.4 1010.3 0.0
03/09:00am 24.8 23.2 11.4 43 7.6 N 11 20 6 11 1010.8 1010.7 0.0
03/08:30am 22.2 21.5 11.9 52 5.8 NNW 7 11 4 6 1011.4 1011.3 0.0
03/08:00am 20.3 19.8 12.0 59 4.6 W 6 9 3 5 1011.5 1011.4 0.0
03/07:30am 19.5 18.7 11.0 58 4.6 NNE 6 7 3 4 1011.3 1011.2 0.0
03/07:00am 17.6 16.1 10.5 63 3.8 NNE 9 17 5 9 1011.2 1011.1 0.0
03/06:30am 17.2 15.3 10.6 65 3.5 NNE 11 17 6 9 1011.1 1011.0 0.0
03/06:00am 17.6 16.0 10.2 62 3.9 NNE 9 17 5 9 1011.3 1011.2 0.0
03/05:30am 18.0 16.5 10.4 61 4.1 NNE 9 15 5 8 1011.3 1011.2 0.0
03/05:00am 18.3 16.5 10.7 61 4.1 NNE 11 17 6 9 1011.6 1011.5 0.0
03/04:30am 18.2 16.0 10.8 62 4.0 N 13 17 7 9 1011.8 1011.7 0.0
03/04:00am 17.4 16.0 11.0 66 3.4 N 9 13 5 7 1012.1 1012.0 0.0
03/03:30am 16.8 16.6 11.7 72 2.8 N 4 6 2 3 1012.4 1012.3 0.0
03/03:00am 17.4 16.7 11.4 68 3.3 NNW 6 7 3 4 1012.7 1012.6 0.0
03/02:30am 17.0 15.1 11.9 72 2.8 N 13 19 7 10 1012.6 1012.5 0.0
03/02:00am 15.5 15.1 11.1 75 2.3 NNW 4 7 2 4 1013.9 1013.8 0.0
03/01:30am 14.9 14.7 10.5 75 2.3 W 2 4 1 2 1014.2 1014.1 0.0
03/01:00am 15.1 15.3 10.7 75 2.3 CALM 0 4 0 2 1014.4 1014.3 0.0
03/12:30am 15.9 15.5 9.8 67 3.2 NNE 2 4 1 2 1014.3 1014.2 0.0
03/12:00am 15.4 14.1 9.3 67 3.1 N 6 7 3 4 1014.5 1014.4 0.0
 
Date/Time
EST
Temp
°C
App
Temp
°C
Dew
Point
°C
Rel
Hum
%
Delta-T
°C
Wind Press
QNH
hPa
Press
MSL
hPa
Rain since
9am
mm
Dir  Spd
km/h
Gust
km/h
Spd
kts
Gust
kts
02/11:30pm 15.1 13.8 9.9 71 2.7 N 7 7 4 4 1014.6 1014.5 0.0
02/11:00pm 15.9 14.7 9.6 66 3.3 N 6 7 3 4 1014.7 1014.6 0.0
02/10:30pm 16.8 15.5 9.2 61 3.9 NNW 6 7 3 4 1015.0 1014.9 0.0
02/10:00pm 18.4 16.5 8.9 54 4.9 NW 9 13 5 7 1015.3 1015.2 0.0
02/09:30pm 18.8 16.8 8.7 52 5.2 NW 9 11 5 6 1015.4 1015.3 0.0
02/09:00pm 19.8 18.1 9.7 52 5.4 NW 9 13 5 7 1015.4 1015.3 0.0
02/08:30pm 18.9 16.6 9.1 53 5.1 NW 11 15 6 8 1015.1 1015.0 0.0
02/08:00pm 20.7 18.3 9.9 50 5.8 NW 13 17 7 9 1014.9 1014.8 0.0
02/07:30pm 20.8 19.7 10.6 52 5.6 NNW 7 11 4 6 1014.6 1014.5 0.0
02/07:00pm 21.9 20.4 10.4 48 6.3 NNW 9 15 5 8 1014.3 1014.2 0.0
02/06:30pm 23.2 20.9 10.3 44 7.1 NNW 13 19 7 10 1014.0 1013.9 0.0

Latest Capital City Observations: Canberra | Sydney | Melbourne | Brisbane | Adelaide | Perth | Hobart | Darwin

Other formats

Comma delimited format used in spreadsheet applications
http://www.bom.gov.au/fwo/IDN60901/IDN60901.94776.axf

JavaScript Object Notation format (JSON) in row-major order
http://www.bom.gov.au/fwo/IDN60901/IDN60901.94776.json

Data quality

Most of these data are generated automatically and are frequently updated. Quality checks on data are not normally performed. It is possible for incorrect values to appear. Refer to information at About Latest Weather Observations and please check the disclaimer before using these data.